Time;durP1;ratioP1;P1;durP2;ratioP2;P2;SDS_P1;SDS_P2;PMS_P1;PMS_P2;Temp;Humidity;BMP_temperature;BMP_pressure;BME280_temperature;BME280_humidity;BME280_pressure;Samples;Min_cycle;Max_cycle;Signal;HPM_P1;HPM_P2
2023/03/04 00:00:46;;;;;;;33.72;23.05;;;6.10;99.90;;;;;;5072363;28;20224;-78
2023/03/04 00:03:14;;;;;;;33.30;21.88;;;6.10;99.90;;;;;;5092729;28;20307;-73
2023/03/04 00:05:41;;;;;;;32.40;21.75;;;6.10;99.90;;;;;;5091763;28;20231;-74
2023/03/04 00:08:08;;;;;;;40.40;22.77;;;6.10;99.90;;;;;;5093093;28;20284;-77
2023/03/04 00:10:35;;;;;;;32.40;20.52;;;6.00;99.90;;;;;;5091984;28;20568;-76
2023/03/04 00:13:02;;;;;;;31.23;20.85;;;6.00;99.90;;;;;;5092120;28;20227;-76
2023/03/04 00:15:29;;;;;;;33.75;21.80;;;6.00;99.90;;;;;;5088607;28;20710;-76
2023/03/04 00:17:57;;;;;;;33.35;21.30;;;6.00;99.90;;;;;;5079597;28;20614;-77
2023/03/04 00:20:24;;;;;;;32.13;21.95;;;6.00;99.90;;;;;;5092580;28;20285;-74
2023/03/04 00:22:51;;;;;;;36.13;24.40;;;6.00;99.90;;;;;;5090317;28;20626;-74
2023/03/04 00:25:18;;;;;;;30.60;19.90;;;6.00;99.90;;;;;;5081883;28;20334;-74
2023/03/04 00:27:46;;;;;;;31.80;20.92;;;5.90;99.90;;;;;;5071201;28;20228;-74
2023/03/04 00:30:13;;;;;;;40.70;22.40;;;5.80;99.90;;;;;;5072176;28;20228;-73
2023/03/04 00:32:40;;;;;;;41.42;26.90;;;5.80;99.90;;;;;;5090385;28;20275;-73
2023/03/04 00:35:09;;;;;;;32.47;19.50;;;5.80;99.90;;;;;;5091948;28;20219;-74
2023/03/04 00:37:36;;;;;;;32.35;22.08;;;5.80;99.90;;;;;;5092463;28;20602;-74
2023/03/04 00:40:04;;;;;;;28.58;19.35;;;5.80;99.90;;;;;;5091145;28;20227;-74
2023/03/04 00:42:31;;;;;;;26.45;18.00;;;5.80;99.90;;;;;;5092288;28;20239;-74
2023/03/04 00:44:58;;;;;;;31.80;18.48;;;5.80;99.90;;;;;;5080336;28;20215;-77
2023/03/04 00:47:25;;;;;;;27.92;18.80;;;5.90;99.90;;;;;;5092448;28;20224;-74
2023/03/04 00:49:52;;;;;;;33.05;20.33;;;5.90;99.90;;;;;;5090390;28;20246;-74
2023/03/04 00:52:21;;;;;;;42.30;26.80;;;5.90;99.90;;;;;;5072137;28;20832;-77
2023/03/04 00:54:48;;;;;;;163.00;74.70;;;5.90;99.90;;;;;;5072566;28;20227;-78
2023/03/04 00:57:15;;;;;;;127.47;61.50;;;5.90;99.90;;;;;;5084269;28;20232;-74
2023/03/04 00:59:42;;;;;;;160.27;66.18;;;5.90;99.90;;;;;;5071848;28;20212;-73
2023/03/04 01:02:09;;;;;;;56.17;31.17;;;6.00;99.90;;;;;;5069066;28;20350;-75
2023/03/04 01:04:37;;;;;;;55.00;32.92;;;6.00;99.90;;;;;;5071511;28;20224;-73
2023/03/04 01:07:05;;;;;;;174.32;69.00;;;6.00;99.90;;;;;;5083586;28;20264;-73
2023/03/04 01:09:33;;;;;;;30.30;18.15;;;6.00;99.90;;;;;;5091845;28;20665;-76
2023/03/04 01:12:00;;;;;;;52.47;23.80;;;6.00;99.90;;;;;;5088370;28;20223;-76
2023/03/04 01:14:27;;;;;;;35.72;18.80;;;6.00;99.90;;;;;;5073630;28;20216;-74
2023/03/04 01:16:58;;;;;;;25.15;15.25;;;6.00;99.90;;;;;;5086168;28;20247;-74
2023/03/04 01:19:28;;;;;;;29.55;18.55;;;6.00;99.90;;;;;;5074738;28;20239;-76
2023/03/04 01:21:55;;;;;;;23.10;13.00;;;6.00;99.90;;;;;;5073327;28;20220;-75
2023/03/04 01:24:22;;;;;;;28.40;13.50;;;6.10;99.90;;;;;;5098731;28;20253;-75
2023/03/04 01:26:51;;;;;;;15.27;10.93;;;6.10;99.90;;;;;;5100680;28;20215;-78
2023/03/04 01:29:18;;;;;;;25.20;12.60;;;6.00;99.90;;;;;;5102825;28;20231;-77
2023/03/04 01:31:45;;;;;;;23.17;12.32;;;6.00;99.90;;;;;;5094511;28;20238;-77
2023/03/04 01:34:12;;;;;;;23.23;12.95;;;6.10;99.90;;;;;;5096680;28;20287;-76
2023/03/04 01:36:39;;;;;;;28.98;13.95;;;6.10;99.90;;;;;;5104645;28;20219;-77
2023/03/04 01:39:06;;;;;;;21.63;10.38;;;6.10;99.90;;;;;;5091615;28;20231;-74
2023/03/04 01:41:33;;;;;;;21.30;11.93;;;6.10;99.90;;;;;;5091090;28;20296;-74
2023/03/04 01:44:04;;;;;;;21.73;10.82;;;6.10;99.90;;;;;;5092034;28;20252;-76
2023/03/04 01:46:33;;;;;;;19.70;12.27;;;6.10;99.90;;;;;;5055852;28;20618;-74
2023/03/04 01:49:00;;;;;;;23.48;12.35;;;6.10;99.90;;;;;;5080903;28;20224;-78
2023/03/04 01:51:28;;;;;;;20.85;10.50;;;6.20;99.90;;;;;;5078020;28;20224;-74
2023/03/04 01:53:55;;;;;;;17.20;10.50;;;6.20;99.90;;;;;;5076863;28;20216;-78
2023/03/04 01:56:26;;;;;;;16.00;9.05;;;6.20;99.90;;;;;;5061638;28;20220;-75
2023/03/04 01:59:12;;;;;;;13.82;8.93;;;6.30;99.90;;;;;;5075615;28;20276;-74
2023/03/04 02:01:40;;;;;;;15.40;8.95;;;6.30;99.90;;;;;;5090928;28;20223;-75
2023/03/04 02:04:08;;;;;;;16.75;7.80;;;6.30;99.90;;;;;;5091216;28;20289;-79
2023/03/04 02:06:36;;;;;;;23.13;10.57;;;6.40;99.90;;;;;;5074603;28;20224;-78
2023/03/04 02:09:04;;;;;;;20.35;9.95;;;6.40;99.90;;;;;;5082323;28;20369;-74
2023/03/04 02:11:32;;;;;;;12.93;9.35;;;6.40;99.90;;;;;;5084332;28;20241;-77
2023/03/04 02:14:00;;;;;;;14.48;8.60;;;6.40;99.90;;;;;;5077073;28;20322;-74
2023/03/04 02:16:29;;;;;;;16.02;8.15;;;6.50;99.90;;;;;;5063996;28;20224;-78
2023/03/04 02:18:57;;;;;;;15.55;8.55;;;6.50;99.90;;;;;;5086279;28;20525;-74
2023/03/04 02:21:27;;;;;;;16.33;8.65;;;6.60;99.90;;;;;;5091243;28;20329;-78
2023/03/04 02:24:02;;;;;;;13.02;8.15;;;6.60;99.90;;;;;;5086578;28;20212;-75
2023/03/04 02:26:31;;;;;;;13.45;8.18;;;6.60;99.90;;;;;;5074041;28;20253;-74
2023/03/04 02:28:59;;;;;;;14.85;7.00;;;6.60;99.90;;;;;;5088218;28;20455;-78
2023/03/04 02:31:33;;;;;;;27.33;10.73;;;6.60;99.90;;;;;;5083514;28;20273;-78
2023/03/04 02:34:03;;;;;;;17.98;8.00;;;6.60;99.90;;;;;;5071617;28;20299;-78
2023/03/04 02:36:32;;;;;;;16.83;6.82;;;6.60;99.90;;;;;;5075027;28;20303;-74
2023/03/04 02:39:04;;;;;;;12.88;7.72;;;6.70;99.90;;;;;;5074232;28;20281;-74
2023/03/04 02:41:33;;;;;;;14.13;7.55;;;6.70;99.90;;;;;;5081355;28;20223;-78
2023/03/04 02:44:00;;;;;;;14.20;7.72;;;6.70;99.90;;;;;;5067115;28;20296;-74
2023/03/04 02:46:27;;;;;;;11.27;6.60;;;6.70;99.90;;;;;;5094014;28;20215;-78
2023/03/04 02:48:54;;;;;;;14.95;7.10;;;6.80;99.90;;;;;;5085864;28;20235;-77
2023/03/04 02:51:21;;;;;;;12.45;6.88;;;6.80;99.90;;;;;;5074581;28;20670;-74
2023/03/04 02:53:48;;;;;;;9.35;6.93;;;6.70;99.90;;;;;;5073692;28;20228;-77
2023/03/04 02:56:19;;;;;;;10.13;6.30;;;6.70;99.90;;;;;;5074461;28;20220;-78
2023/03/04 02:58:48;;;;;;;11.32;6.32;;;6.80;99.90;;;;;;5092653;28;20220;-78
2023/03/04 03:01:15;;;;;;;11.05;6.35;;;6.80;99.90;;;;;;5084808;28;20245;-74
2023/03/04 03:03:42;;;;;;;14.05;7.60;;;6.80;99.90;;;;;;5094201;28;20248;-74
2023/03/04 03:06:10;;;;;;;17.48;8.35;;;6.80;99.90;;;;;;5094077;28;20223;-74
2023/03/04 03:08:38;;;;;;;12.77;6.32;;;6.80;99.90;;;;;;5078946;28;20263;-74
2023/03/04 03:11:05;;;;;;;16.20;8.43;;;6.80;99.90;;;;;;5090031;28;20227;-74
2023/03/04 03:13:32;;;;;;;20.13;6.90;;;6.80;99.90;;;;;;5092631;28;20315;-78
2023/03/04 03:16:04;;;;;;;12.43;6.20;;;6.90;99.90;;;;;;5087794;28;20272;-77
2023/03/04 03:18:30;;;;;;;13.48;7.50;;;6.90;99.90;;;;;;5093913;28;20267;-74
2023/03/04 03:21:10;;;;;;;13.10;7.32;;;6.90;99.90;;;;;;5093347;28;20219;-74
2023/03/04 03:23:37;;;;;;;11.20;6.20;;;6.90;99.90;;;;;;5093609;28;20618;-78
2023/03/04 03:26:06;;;;;;;12.93;7.25;;;6.90;99.90;;;;;;5068033;28;20231;-74
2023/03/04 03:28:33;;;;;;;14.75;7.68;;;6.90;99.90;;;;;;5073364;28;20319;-74
2023/03/04 03:31:02;;;;;;;18.88;7.50;;;6.90;99.90;;;;;;5086703;28;20223;-78
2023/03/04 03:33:29;;;;;;;14.82;6.65;;;6.90;99.90;;;;;;5082495;28;20707;-77
2023/03/04 03:35:56;;;;;;;7.78;6.00;;;7.00;99.90;;;;;;5072747;28;20239;-75
2023/03/04 03:38:23;;;;;;;15.95;7.07;;;7.00;99.90;;;;;;5080493;28;20247;-74
2023/03/04 03:40:50;;;;;;;15.02;5.57;;;7.00;99.90;;;;;;5072905;28;20308;-74
2023/03/04 03:43:17;;;;;;;9.85;6.28;;;7.00;99.90;;;;;;5078842;28;20567;-77
2023/03/04 03:45:44;;;;;;;11.85;6.10;;;7.00;99.90;;;;;;5080682;28;20307;-77
2023/03/04 03:48:12;;;;;;;16.15;6.72;;;7.00;99.90;;;;;;5072758;28;20232;-74
2023/03/04 03:50:39;;;;;;;14.70;5.53;;;7.00;99.90;;;;;;5073494;28;20301;-74
2023/03/04 03:53:06;;;;;;;8.07;6.00;;;7.00;99.90;;;;;;5072107;28;20227;-78
2023/03/04 03:55:37;;;;;;;11.60;4.90;;;7.00;99.90;;;;;;5082506;28;20219;-78
2023/03/04 03:58:06;;;;;;;13.50;5.57;;;7.00;99.90;;;;;;5084688;28;20230;-74
2023/03/04 04:00:33;;;;;;;8.88;5.10;;;7.00;99.90;;;;;;5076991;28;20704;-74
2023/03/04 04:03:01;;;;;;;9.35;5.55;;;7.00;99.90;;;;;;5072792;28;20558;-74
2023/03/04 04:05:30;;;;;;;14.00;5.97;;;7.10;99.90;;;;;;5075260;28;20331;-78
2023/03/04 04:07:58;;;;;;;14.35;7.78;;;7.10;99.90;;;;;;5075685;28;20563;-78
2023/03/04 04:10:25;;;;;;;14.65;6.78;;;7.10;99.90;;;;;;5091002;28;20226;-74
2023/03/04 04:12:52;;;;;;;10.90;5.80;;;7.10;99.90;;;;;;5072517;28;20342;-73
2023/03/04 04:15:19;;;;;;;9.20;5.10;;;7.10;99.90;;;;;;5079756;28;20239;-78
2023/03/04 04:17:46;;;;;;;11.10;6.45;;;7.10;99.90;;;;;;5079103;28;20231;-74
2023/03/04 04:20:13;;;;;;;6.10;5.07;;;7.10;99.90;;;;;;5091326;28;20231;-74
2023/03/04 04:22:42;;;;;;;10.48;5.75;;;7.10;99.90;;;;;;5090347;28;20610;-77
2023/03/04 04:25:09;;;;;;;10.98;5.13;;;7.10;99.90;;;;;;5072714;28;20323;-74
2023/03/04 04:27:37;;;;;;;9.65;5.05;;;7.10;99.90;;;;;;5072667;28;20227;-76
2023/03/04 04:30:06;;;;;;;7.30;4.47;;;7.20;99.90;;;;;;5073121;28;20296;-77
2023/03/04 04:32:33;;;;;;;17.90;5.32;;;7.20;99.90;;;;;;5075611;28;20828;-74
2023/03/04 04:35:00;;;;;;;11.88;3.92;;;7.20;99.90;;;;;;5071647;28;20220;-74
2023/03/04 04:37:27;;;;;;;11.65;4.70;;;7.20;99.90;;;;;;5071727;28;20311;-74
2023/03/04 04:39:56;;;;;;;10.68;4.72;;;7.20;99.90;;;;;;5070612;28;20230;-74
2023/03/04 04:42:23;;;;;;;9.57;5.13;;;7.20;99.90;;;;;;5069178;28;20657;-74
2023/03/04 04:44:51;;;;;;;12.60;5.47;;;7.20;99.90;;;;;;5076552;28;20219;-74
2023/03/04 04:47:18;;;;;;;6.65;4.50;;;7.30;99.90;;;;;;5089337;28;20235;-74
2023/03/04 04:49:46;;;;;;;10.60;5.10;;;7.30;99.90;;;;;;5091281;28;20227;-74
2023/03/04 04:52:13;;;;;;;18.38;6.78;;;7.30;99.90;;;;;;5090351;28;20234;-74
2023/03/04 04:54:40;;;;;;;7.07;4.50;;;7.30;99.90;;;;;;5090247;28;20557;-77
2023/03/04 04:57:08;;;;;;;10.25;4.70;;;7.30;99.90;;;;;;5089013;28;20247;-78
2023/03/04 04:59:35;;;;;;;9.95;3.72;;;7.40;99.90;;;;;;5088884;28;20262;-75
2023/03/04 05:02:03;;;;;;;14.35;4.15;;;7.30;99.90;;;;;;5088815;28;20276;-74
2023/03/04 05:04:30;;;;;;;10.30;5.07;;;7.30;99.90;;;;;;5090559;28;20571;-78
2023/03/04 05:06:57;;;;;;;7.50;4.15;;;7.40;99.90;;;;;;5091216;28;20552;-77
2023/03/04 05:09:24;;;;;;;8.90;3.40;;;7.40;99.90;;;;;;5092092;28;20280;-78
2023/03/04 05:11:51;;;;;;;10.32;4.55;;;7.40;99.90;;;;;;5092984;28;20554;-74
2023/03/04 05:14:19;;;;;;;6.35;3.72;;;7.40;99.90;;;;;;5092013;28;20223;-74
2023/03/04 05:16:46;;;;;;;9.48;3.85;;;7.40;99.90;;;;;;5092666;28;20227;-75
2023/03/04 05:19:13;;;;;;;7.50;4.43;;;7.40;99.90;;;;;;5080144;28;20269;-74
2023/03/04 05:21:40;;;;;;;8.82;3.83;;;7.40;99.90;;;;;;5092515;28;20314;-78
2023/03/04 05:24:07;;;;;;;9.68;3.28;;;7.40;99.90;;;;;;5092178;28;20742;-74
2023/03/04 05:26:34;;;;;;;6.47;3.60;;;7.40;99.90;;;;;;5092987;28;20234;-74
2023/03/04 05:29:01;;;;;;;7.05;3.72;;;7.40;99.90;;;;;;5092261;28;20687;-74
2023/03/04 05:31:30;;;;;;;8.07;4.60;;;7.50;99.90;;;;;;5080496;28;20274;-76
2023/03/04 05:33:57;;;;;;;6.57;3.55;;;7.50;99.90;;;;;;5092848;28;20226;-74
2023/03/04 05:36:27;;;;;;;7.88;3.28;;;7.50;99.90;;;;;;5091830;28;20234;-74
2023/03/04 05:38:54;;;;;;;4.68;3.17;;;7.50;99.90;;;;;;5092533;28;20631;-74
2023/03/04 05:41:21;;;;;;;7.22;3.50;;;7.50;99.90;;;;;;5092416;28;20246;-74
2023/03/04 05:43:48;;;;;;;8.57;3.85;;;7.50;99.90;;;;;;5092489;28;20220;-74
2023/03/04 05:46:17;;;;;;;8.32;4.00;;;7.60;99.90;;;;;;5091766;28;20223;-74
2023/03/04 05:48:45;;;;;;;10.95;3.85;;;7.60;99.90;;;;;;5091791;28;20234;-76
2023/03/04 05:51:12;;;;;;;11.52;4.95;;;7.60;99.90;;;;;;5091614;28;20281;-73
2023/03/04 05:53:41;;;;;;;7.18;3.50;;;7.60;99.90;;;;;;5091965;28;20230;-77
2023/03/04 05:56:09;;;;;;;5.25;3.10;;;7.60;99.90;;;;;;5091644;28;20223;-77
2023/03/04 05:58:36;;;;;;;5.63;4.05;;;7.60;99.90;;;;;;5091207;28;20284;-77
2023/03/04 06:01:04;;;;;;;6.40;3.17;;;7.50;99.90;;;;;;5091788;28;20298;-77
2023/03/04 06:03:31;;;;;;;6.07;2.90;;;7.50;99.90;;;;;;5091322;28;20765;-73
2023/03/04 06:06:00;;;;;;;5.45;3.00;;;7.50;99.90;;;;;;5091871;28;20272;-77
2023/03/04 06:08:27;;;;;;;4.95;3.53;;;7.60;99.90;;;;;;5091844;28;20901;-77
2023/03/04 06:10:57;;;;;;;7.05;4.20;;;7.60;99.90;;;;;;5095840;28;20564;-77
2023/03/04 06:13:25;;;;;;;9.77;3.50;;;7.60;99.90;;;;;;5095102;28;20237;-77
2023/03/04 06:15:55;;;;;;;3.28;2.97;;;7.60;99.90;;;;;;5095989;28;20684;-77
2023/03/04 06:18:22;;;;;;;9.98;3.67;;;7.60;99.90;;;;;;5095082;28;20231;-77
2023/03/04 06:20:49;;;;;;;8.35;3.55;;;7.60;99.90;;;;;;5095515;28;20491;-73
2023/03/04 06:23:22;;;;;;;10.30;3.97;;;7.60;99.90;;;;;;5084845;28;20219;-76
2023/03/04 06:25:53;;;;;;;5.75;3.13;;;7.60;99.90;;;;;;5095013;28;20223;-77
2023/03/04 06:28:20;;;;;;;6.68;3.38;;;7.60;99.90;;;;;;5094624;28;20230;-74
2023/03/04 06:30:48;;;;;;;8.00;2.95;;;7.60;99.90;;;;;;5095865;28;20212;-77
2023/03/04 06:33:15;;;;;;;7.53;3.10;;;7.60;99.90;;;;;;5095936;28;20657;-74
2023/03/04 06:35:42;;;;;;;7.75;3.15;;;7.60;99.90;;;;;;5094888;28;20223;-73
2023/03/04 06:38:09;;;;;;;12.77;3.42;;;7.60;99.90;;;;;;5084488;28;20621;-74
2023/03/04 06:40:38;;;;;;;6.35;2.88;;;7.60;99.90;;;;;;5094721;28;20624;-76
2023/03/04 06:43:05;;;;;;;5.00;3.13;;;7.60;99.90;;;;;;5093019;28;20280;-73
2023/03/04 06:45:41;;;;;;;6.15;3.53;;;7.60;99.90;;;;;;5095092;28;20289;-78
2023/03/04 06:48:09;;;;;;;3.72;2.08;;;7.60;99.90;;;;;;5095625;28;20222;-74
2023/03/04 06:50:36;;;;;;;6.20;3.60;;;7.70;99.90;;;;;;5083673;28;20235;-74
2023/03/04 06:53:03;;;;;;;5.28;2.63;;;7.60;99.90;;;;;;5095066;28;20296;-77
2023/03/04 06:55:30;;;;;;;7.70;4.07;;;7.60;99.90;;;;;;5094339;28;20262;-77
2023/03/04 06:57:58;;;;;;;2.50;2.03;;;7.60;99.90;;;;;;5094871;28;20223;-77
2023/03/04 07:00:25;;;;;;;4.45;2.53;;;7.60;99.90;;;;;;5094466;28;20281;-74
2023/03/04 07:02:52;;;;;;;6.03;3.38;;;7.70;99.90;;;;;;5095198;28;20298;-74
2023/03/04 07:05:22;;;;;;;6.05;3.40;;;7.70;99.90;;;;;;5094295;28;20223;-74
2023/03/04 07:07:49;;;;;;;9.20;3.75;;;7.70;99.90;;;;;;5085416;28;20227;-74
2023/03/04 07:10:16;;;;;;;10.68;3.15;;;7.60;99.90;;;;;;5095453;28;20227;-77
2023/03/04 07:12:43;;;;;;;5.03;2.85;;;7.70;99.90;;;;;;5094396;28;20318;-77
2023/03/04 07:15:14;;;;;;;7.22;3.50;;;7.70;99.90;;;;;;5095217;28;20235;-78
2023/03/04 07:17:41;;;;;;;7.43;3.47;;;7.70;99.90;;;;;;5093814;28;20328;-78
2023/03/04 07:20:12;;;;;;;7.70;3.40;;;7.70;99.90;;;;;;5082430;28;20239;-75
2023/03/04 07:22:39;;;;;;;6.10;2.72;;;7.70;99.90;;;;;;5082597;28;20223;-75
2023/03/04 07:25:06;;;;;;;6.10;3.80;;;7.70;99.90;;;;;;5094760;28;20227;-73
2023/03/04 07:27:37;;;;;;;9.23;4.22;;;7.70;99.90;;;;;;5094122;28;20262;-78
2023/03/04 07:30:05;;;;;;;6.35;3.40;;;7.70;99.90;;;;;;5093651;28;20266;-77
2023/03/04 07:32:34;;;;;;;6.40;3.78;;;7.70;99.90;;;;;;5094554;28;20226;-74
2023/03/04 07:35:02;;;;;;;7.80;4.35;;;7.70;99.90;;;;;;5093887;28;20306;-74
2023/03/04 07:37:39;;;;;;;6.80;3.40;;;7.70;99.90;;;;;;5094578;28;20284;-78
2023/03/04 07:40:08;;;;;;;10.05;4.55;;;7.70;99.90;;;;;;5094055;28;20262;-77
2023/03/04 07:42:36;;;;;;;5.18;3.47;;;7.70;99.90;;;;;;5094015;28;20583;-77
2023/03/04 07:45:04;;;;;;;6.53;4.70;;;7.80;99.90;;;;;;5093811;28;20283;-77
2023/03/04 07:47:31;;;;;;;8.75;5.70;;;7.80;99.90;;;;;;5094284;28;20238;-77
2023/03/04 07:49:59;;;;;;;9.07;5.18;;;7.80;99.90;;;;;;5093521;28;20223;-74
2023/03/04 07:52:26;;;;;;;6.75;5.22;;;7.80;99.90;;;;;;5094689;28;20227;-74
2023/03/04 07:54:53;;;;;;;9.77;5.60;;;7.80;99.90;;;;;;5093685;28;20652;-74
2023/03/04 07:57:20;;;;;;;7.20;4.55;;;7.80;99.90;;;;;;5093812;28;20754;-74
2023/03/04 07:59:47;;;;;;;8.10;4.82;;;7.80;99.90;;;;;;5093131;28;20359;-74
2023/03/04 08:02:15;;;;;;;8.27;5.43;;;7.80;99.90;;;;;;5093270;28;20660;-73
2023/03/04 08:04:42;;;;;;;10.25;3.80;;;7.80;99.90;;;;;;5093244;28;20627;-74
2023/03/04 08:07:13;;;;;;;6.32;3.90;;;7.80;99.90;;;;;;5093849;28;20220;-73
2023/03/04 08:09:40;;;;;;;8.38;4.70;;;7.90;99.90;;;;;;5094574;28;20231;-77
2023/03/04 08:12:07;;;;;;;7.18;3.85;;;7.90;99.90;;;;;;5095572;28;20230;-78
2023/03/04 08:14:37;;;;;;;8.27;4.63;;;7.90;99.90;;;;;;5098833;28;20220;-77
2023/03/04 08:17:04;;;;;;;5.43;3.60;;;7.90;99.90;;;;;;5098932;28;20222;-74
2023/03/04 08:19:31;;;;;;;9.20;3.70;;;7.90;99.90;;;;;;5095387;28;20632;-78
2023/03/04 08:21:58;;;;;;;10.75;6.32;;;8.00;99.90;;;;;;5096571;28;20276;-74
2023/03/04 08:24:27;;;;;;;9.65;4.95;;;7.90;99.90;;;;;;5097846;28;20223;-73
2023/03/04 08:26:54;;;;;;;6.53;4.65;;;7.90;99.90;;;;;;5098336;28;20246;-74
2023/03/04 08:29:23;;;;;;;9.50;6.43;;;7.90;99.90;;;;;;5096882;28;20660;-75
2023/03/04 08:31:51;;;;;;;8.20;5.30;;;7.90;99.90;;;;;;5094577;28;20219;-74
2023/03/04 08:34:19;;;;;;;5.70;4.00;;;7.90;99.90;;;;;;5093544;28;20296;-74
2023/03/04 08:36:46;;;;;;;9.43;5.78;;;7.90;99.90;;;;;;5093924;28;20219;-74
2023/03/04 08:39:15;;;;;;;8.32;5.40;;;7.90;99.90;;;;;;5092953;28;20227;-78
2023/03/04 08:41:43;;;;;;;10.38;5.72;;;7.90;99.90;;;;;;5092895;28;20276;-79
2023/03/04 08:44:11;;;;;;;6.60;3.80;;;7.90;99.90;;;;;;5088482;28;20335;-78
2023/03/04 08:46:40;;;;;;;6.57;3.83;;;7.90;99.90;;;;;;5093337;28;20677;-75
2023/03/04 08:49:07;;;;;;;9.80;4.70;;;7.90;99.90;;;;;;5091760;28;20235;-75
2023/03/04 08:51:35;;;;;;;5.78;3.03;;;8.00;99.90;;;;;;5092163;28;20664;-79
2023/03/04 08:54:03;;;;;;;4.78;2.78;;;8.00;99.90;;;;;;5092715;28;20281;-79
2023/03/04 08:56:30;;;;;;;8.63;2.55;;;8.00;99.90;;;;;;5092817;28;20319;-79
2023/03/04 08:59:00;;;;;;;2.83;2.28;;;8.10;99.90;;;;;;5092433;28;20304;-75
2023/03/04 09:01:27;;;;;;;9.80;2.42;;;8.10;99.90;;;;;;5092672;28;20237;-79
2023/03/04 09:03:55;;;;;;;4.82;2.47;;;8.20;99.90;;;;;;5088903;28;20254;-75
2023/03/04 09:06:22;;;;;;;4.85;2.90;;;8.20;99.90;;;;;;5093149;28;20272;-75
2023/03/04 09:08:49;;;;;;;8.02;2.30;;;8.20;99.90;;;;;;5092692;28;20220;-75
2023/03/04 09:11:16;;;;;;;14.68;4.43;;;8.30;99.90;;;;;;5091034;28;20215;-79
2023/03/04 09:13:43;;;;;;;10.68;2.78;;;8.30;99.90;;;;;;5079548;28;20555;-75
2023/03/04 09:16:13;;;;;;;3.40;2.30;;;8.30;99.90;;;;;;5080907;28;20227;-75
2023/03/04 09:18:41;;;;;;;5.85;2.47;;;8.40;99.90;;;;;;5097468;28;20277;-75
2023/03/04 09:21:09;;;;;;;9.02;4.22;;;8.40;99.90;;;;;;5087278;28;20731;-79
2023/03/04 09:23:37;;;;;;;11.95;5.43;;;8.50;99.90;;;;;;5088198;28;20219;-79
2023/03/04 09:26:14;;;;;;;9.65;6.03;;;8.50;99.90;;;;;;5101569;28;20231;-79
2023/03/04 09:28:42;;;;;;;15.05;3.25;;;8.60;99.90;;;;;;5100068;28;20239;-74
2023/03/04 09:31:13;;;;;;;6.68;3.05;;;8.60;99.90;;;;;;5078847;28;20325;-75
2023/03/04 09:33:41;;;;;;;7.15;3.58;;;8.60;99.90;;;;;;5079654;28;20227;-79
2023/03/04 09:36:10;;;;;;;7.90;3.15;;;8.60;99.90;;;;;;5087603;28;20220;-79
2023/03/04 09:38:39;;;;;;;7.53;3.40;;;8.60;99.90;;;;;;5104750;28;20231;-78
2023/03/04 09:41:09;;;;;;;6.95;3.22;;;8.70;99.90;;;;;;5102509;28;20292;-79
2023/03/04 09:43:39;;;;;;;7.20;3.83;;;8.70;99.90;;;;;;5101359;28;20230;-76
2023/03/04 09:46:11;;;;;;;6.97;3.60;;;8.70;99.90;;;;;;5095087;28;20697;-79
2023/03/04 09:48:45;;;;;;;7.00;2.95;;;8.80;99.90;;;;;;5095856;28;20317;-74
2023/03/04 09:51:21;;;;;;;9.50;4.60;;;8.80;99.90;;;;;;5095560;28;20231;-79
2023/03/04 09:54:02;;;;;;;6.88;3.17;;;8.80;99.90;;;;;;5096647;28;20222;-76
2023/03/04 09:56:30;;;;;;;7.78;3.60;;;8.80;99.90;;;;;;5095865;28;20828;-74
2023/03/04 09:59:05;;;;;;;4.82;3.20;;;8.80;99.90;;;;;;5096044;28;20626;-75
2023/03/04 10:01:42;;;;;;;7.00;3.55;;;8.90;99.90;;;;;;5096212;28;20582;-79
2023/03/04 10:04:15;;;;;;;7.25;2.85;;;8.90;99.90;;;;;;5095749;28;20287;-78
2023/03/04 10:06:45;;;;;;;7.35;2.30;;;8.80;99.90;;;;;;5095803;28;20556;-79
2023/03/04 10:09:19;;;;;;;4.95;3.70;;;8.80;99.90;;;;;;5094167;28;20235;-78
2023/03/04 10:11:49;;;;;;;11.60;5.75;;;8.80;99.90;;;;;;5095607;28;20565;-75
2023/03/04 10:14:32;;;;;;;10.43;6.45;;;8.90;99.90;;;;;;5095168;28;20230;-79
2023/03/04 10:17:06;;;;;;;9.02;3.45;;;8.90;99.90;;;;;;5096032;28;20215;-79
2023/03/04 10:19:44;;;;;;;12.40;4.10;;;8.90;99.90;;;;;;5086039;28;20306;-74
2023/03/04 10:22:20;;;;;;;8.95;4.28;;;8.90;99.90;;;;;;5095643;28;20225;-79
2023/03/04 10:24:48;;;;;;;9.77;2.60;;;8.90;99.90;;;;;;5096577;28;20556;-75
2023/03/04 10:27:19;;;;;;;4.07;2.50;;;8.90;99.90;;;;;;5095316;28;20219;-74
2023/03/04 10:29:46;;;;;;;7.10;2.50;;;8.90;99.90;;;;;;5095367;28;20239;-75
2023/03/04 10:32:20;;;;;;;8.50;3.28;;;8.90;99.90;;;;;;5095672;28;20705;-76
2023/03/04 10:34:48;;;;;;;8.52;3.85;;;8.90;99.90;;;;;;5095173;28;20636;-78
2023/03/04 10:37:16;;;;;;;15.85;5.53;;;8.90;99.90;;;;;;5095283;28;20288;-80
2023/03/04 10:39:45;;;;;;;13.63;4.60;;;8.90;99.90;;;;;;5095373;28;20230;-78
2023/03/04 10:42:35;;;;;;;21.58;7.57;;;9.00;99.90;;;;;;5094820;28;20223;-79
2023/03/04 10:45:03;;;;;;;9.95;5.60;;;9.00;99.90;;;;;;5080616;28;20231;-79
2023/03/04 10:47:34;;;;;;;11.60;4.47;;;9.00;99.90;;;;;;5094953;28;20302;-79
2023/03/04 10:50:04;;;;;;;8.55;3.28;;;9.00;99.90;;;;;;5099385;28;20219;-75
2023/03/04 10:52:35;;;;;;;11.13;4.20;;;9.00;99.90;;;;;;5097186;28;20215;-75
2023/03/04 10:55:14;;;;;;;13.32;8.40;;;9.10;99.90;;;;;;5099898;28;20219;-78
2023/03/04 10:57:44;;;;;;;14.82;7.00;;;9.10;99.90;;;;;;5098418;28;20223;-75
2023/03/04 11:00:27;;;;;;;10.93;5.40;;;9.00;99.90;;;;;;5095074;28;20226;-74
2023/03/04 11:03:23;;;;;;;16.42;7.45;;;9.00;99.90;;;;;;5096714;28;20219;-79
2023/03/04 11:06:03;;;;;;;12.20;4.43;;;9.00;99.90;;;;;;5095659;28;20224;-75
2023/03/04 11:08:30;;;;;;;9.68;4.68;;;9.10;99.90;;;;;;5095214;28;20230;-75
2023/03/04 11:10:57;;;;;;;11.35;5.47;;;9.10;99.90;;;;;;5094221;28;20219;-79
2023/03/04 11:13:26;;;;;;;18.27;5.20;;;9.10;99.90;;;;;;5095725;28;20230;-79
2023/03/04 11:15:55;;;;;;;10.60;4.20;;;9.10;99.90;;;;;;5094212;28;20313;-78
2023/03/04 11:18:29;;;;;;;9.82;3.65;;;9.20;99.90;;;;;;5094224;28;20239;-78
2023/03/04 11:20:58;;;;;;;12.95;5.05;;;9.20;99.90;;;;;;5094537;28;20219;-78
2023/03/04 11:23:35;;;;;;;10.52;5.05;;;9.20;99.90;;;;;;5095030;28;20234;-74
2023/03/04 11:26:04;;;;;;;18.42;5.20;;;9.30;99.90;;;;;;5093612;28;20237;-78
2023/03/04 11:28:39;;;;;;;13.45;6.80;;;9.30;99.90;;;;;;5093638;28;20215;-78
2023/03/04 11:31:12;;;;;;;15.98;6.45;;;9.20;99.90;;;;;;5094091;28;20223;-78
2023/03/04 11:33:45;;;;;;;9.15;4.60;;;9.30;99.90;;;;;;5093970;28;20305;-78
2023/03/04 11:36:29;;;;;;;9.80;4.22;;;9.30;99.90;;;;;;5094396;28;20219;-78
2023/03/04 11:38:57;;;;;;;15.55;4.47;;;9.40;99.90;;;;;;5094044;28;20242;-78
2023/03/04 11:41:30;;;;;;;14.13;4.50;;;9.40;99.90;;;;;;5094020;28;20231;-78
2023/03/04 11:43:59;;;;;;;13.52;4.38;;;9.40;99.90;;;;;;5094082;28;20247;-78
2023/03/04 11:47:00;;;;;;;13.32;3.95;;;9.40;99.90;;;;;;5093955;28;20215;-75
2023/03/04 11:49:54;;;;;;;13.35;3.75;;;9.40;99.90;;;;;;5093829;28;20219;-76
2023/03/04 11:52:40;;;;;;;12.85;5.32;;;9.40;99.90;;;;;;5090378;28;20224;-75
2023/03/04 11:55:34;;;;;;;9.77;2.95;;;9.50;99.90;;;;;;5093692;28;20681;-80
2023/03/04 11:58:16;;;;;;;8.07;3.97;;;9.50;99.90;;;;;;5093158;28;20238;-79
2023/03/04 12:00:52;;;;;;;12.18;4.25;;;9.40;99.90;;;;;;5093863;28;20302;-79
2023/03/04 12:03:48;;;;;;;13.25;4.57;;;9.40;99.90;;;;;;5093316;28;20219;-79
2023/03/04 12:06:23;;;;;;;12.73;5.32;;;9.30;99.90;;;;;;5092363;28;20235;-78
2023/03/04 12:09:17;;;;;;;12.82;5.72;;;9.30;99.90;;;;;;5093171;28;20223;-79
2023/03/04 12:11:55;;;;;;;12.55;4.70;;;9.20;99.90;;;;;;5087391;28;20241;-78
2023/03/04 12:14:38;;;;;;;15.13;3.83;;;9.20;99.90;;;;;;5092089;28;20672;-78
2023/03/04 12:17:21;;;;;;;16.27;4.35;;;9.20;99.90;;;;;;5089424;28;20230;-78
2023/03/04 12:20:07;;;;;;;16.15;5.10;;;9.20;99.90;;;;;;5072979;28;20558;-79
2023/03/04 12:22:43;;;;;;;9.35;5.40;;;9.20;99.90;;;;;;5082497;28;20223;-78
2023/03/04 12:25:25;;;;;;;12.18;4.80;;;9.20;99.90;;;;;;5093163;28;20260;-79
2023/03/04 12:28:03;;;;;;;7.07;3.15;;;9.20;99.90;;;;;;5093018;28;20226;-78
2023/03/04 12:30:41;;;;;;;13.02;5.15;;;9.30;99.90;;;;;;5093563;28;20706;-75
2023/03/04 12:33:20;;;;;;;6.90;3.47;;;9.20;99.90;;;;;;5092615;28;20242;-79
2023/03/04 12:35:58;;;;;;;13.52;4.13;;;9.30;99.90;;;;;;5092947;28;20219;-76
2023/03/04 12:38:42;;;;;;;6.15;3.00;;;9.30;99.90;;;;;;5093101;28;20223;-79
2023/03/04 12:41:38;;;;;;;7.50;3.25;;;9.30;99.90;;;;;;5092971;28;20224;-74
2023/03/04 12:44:16;;;;;;;6.32;3.00;;;9.30;99.90;;;;;;5092956;28;20254;-74
2023/03/04 12:47:07;;;;;;;10.40;4.72;;;9.30;99.90;;;;;;5092719;28;20246;-79
2023/03/04 12:49:46;;;;;;;10.40;4.00;;;9.30;99.90;;;;;;5072524;28;20234;-79
2023/03/04 12:52:22;;;;;;;6.25;3.35;;;9.30;99.90;;;;;;5073180;28;20224;-78
2023/03/04 12:54:51;;;;;;;6.38;3.80;;;9.20;99.90;;;;;;5070562;28;20292;-74
2023/03/04 12:57:23;;;;;;;14.50;5.63;;;9.20;99.60;;;;;;5073236;28;20271;-78
2023/03/04 12:59:59;;;;;;;9.77;3.90;;;9.20;99.50;;;;;;5071488;28;20239;-74
2023/03/04 13:02:47;;;;;;;10.43;3.25;;;9.20;99.30;;;;;;5074588;28;20239;-78
2023/03/04 13:05:45;;;;;;;12.38;4.65;;;9.20;99.20;;;;;;5082293;28;20228;-75